RJTH(METAR)
02/08 10:00
RJTH 080100Z 31006KT 9999 RA FEW025 SCT030 BKN050 14/09 Q1015 RMK
A2997=
戻る
トップページへ戻る
IMOC Co,.Ltd.